North Spring Valley, Nevada Weather observations

Data are for 10 minute period ending at time listed.
 Day   Time   Solar   Ave.   Ave.  Ave.  Vector  Max.   Baro.   Total    
  of    of     Rad.   Air    Rel.  Wind   Wind   Wind  Press.  Precip.   
Year   Day            Temp.  Hum.  Speed  Dir.   Gust                    
2015   (PST)  Kw/m2    F      %     mph   deg.    mph    mb.     in.     
-------------------------------------------------------------------------
  88   15:20   0.29   68.3    13    3.8   123     8.5   829.9    0.00 
  88   15:30   0.23   68.2    13    0.8   106     3.8   829.9    0.00 
  88   15:40   0.19   68.4    13    0.8   138     2.3   829.9    0.00 
  88   15:50   0.16   67.9    13    1.8   102     4.1   829.9    0.00 
  88   16:00   0.16   67.1    15    2.1    98     3.4   829.9    0.00 
  88   16:10   0.18   67.4    14    1.2    42     2.8   829.9    0.00 
  88   16:20   0.17   67.3    15    3.9    20     6.5   829.9    0.00 
  88   16:30   0.16   66.7    15    3.9    14     6.1   829.8    0.00 
  88   16:40   0.16   66.9    16    3.1    37     4.5   829.8    0.00 
  88   16:50   0.14   66.8    16    2.2    32     3.2   829.8    0.00 
  88   17:00   0.10   66.6    16    2.4     1     3.4   829.8    0.00 
  88   17:10   0.06   65.0    15    3.3   358     4.7   829.7    0.00 
  88   17:20   0.04   64.1    16    3.7   325     4.9   829.8    0.00 
  88   17:30   0.03   61.5    19    5.4   309     6.9   829.8    0.00 
  88   17:40   0.02   59.0    21    6.6   306     7.7   829.9    0.00 
  88   17:50   0.02   58.7    20    6.7   309     8.6   829.9    0.00 
  88   18:00   0.01   58.1    20    6.3   309     8.0   830.0    0.00 
  88   18:10   0.00   57.0    21    6.1   315     8.0   830.0    0.00 
  88   18:20   0.00   58.3    19    8.0   330    11.0   830.1    0.00 
  88   18:30   0.00   58.9    17    9.6   334    13.1   830.3    0.00 
  88   18:40   0.00   58.5    17   10.8   331    15.7   830.4    0.00 
  88   18:50   0.00   58.3    16   10.0   331    15.1   830.6    0.00 
  88   19:00   0.00   58.6    16   11.3   339    16.0   830.7    0.00 
  88   19:10   0.00   58.0    17   11.4   338    15.1   830.8    0.00 
  88   19:20   0.00   56.9    18   11.3   342    15.6   831.0    0.00 
  88   19:30   0.00   56.0    18   11.0   345    15.7   831.1    0.00 
  88   19:40   0.00   54.4    19    9.6   344    13.4   831.1    0.00 
  88   19:50   0.00   53.8    19    8.3   344    11.2   831.1    0.00 
  88   20:00   0.00   53.0    20    9.0   346    12.8   831.1    0.00 
  88   20:10   0.00   52.9    20   10.3   348    13.8   831.1    0.00 
  88   20:20   0.00   52.1    20    9.5   349    14.3   831.2    0.00 
  88   20:30   0.00   51.5    20    9.2   344    13.2   831.3    0.00 
  88   20:40   0.00   51.3    20    9.7   341    13.7   831.3    0.00 
  88   20:50   0.00   50.9    20    8.7   331    13.0   831.4    0.00 
  88   21:00   0.00   49.8    22    6.3   324    11.0   831.4    0.00 
  88   21:10   0.00   48.7    22    4.9   328     8.2   831.3    0.00 
  88   21:20   0.00   47.9    24    4.3   318     5.8   831.3    0.00 
  88   21:30   0.00   48.1    25    5.1   315     7.2   831.3    0.00 
  88   21:40   0.00   47.8    26    6.1   305     7.7   831.3    0.00 
  88   21:50   0.00   47.0    27    5.3   296     6.6   831.3    0.00 
  88   22:00   0.00   47.3    27    4.7   300     6.2   831.3    0.00 
  88   22:10   0.00   48.5    24    3.4   344     5.5   831.4    0.00 
  88   22:20   0.00   43.7    28    3.5   198     5.1   831.4    0.00 
  88   22:30   0.00   45.9    26    3.6   309     6.0   831.3    0.00 
  88   22:40   0.00   46.6    26    3.6   318     4.7   831.3    0.00 
  88   22:50   0.00   46.1    27    3.6   309     5.2   831.3    0.00 
  88   23:00   0.00   42.5    30    1.5   343     2.6   831.2    0.00 
  88   23:10   0.00   44.9    27    3.5   303     5.6   831.2    0.00 
  88   23:20   0.00   45.1    28    5.0   311     5.8   831.2    0.00 
  88   23:30   0.00   45.4    28    5.2   306     6.6   831.3    0.00 
  88   23:40   0.00   45.8    27    4.5   314     5.6   831.3    0.00 
  88   23:50   0.00   45.8    26    3.5   322     4.7   831.4    0.00 
  89    0:00   0.00   40.7    31    3.1   162     4.3   831.4    0.00 
  89    0:10   0.00   37.6    36    3.9   164     4.8   831.3    0.00 
  89    0:20   0.00   37.3    34    2.5   181     3.9   831.2    0.00 
  89    0:30   0.00   38.3    32    1.2   204     2.6   831.2    0.00 
  89    0:40   0.00   39.0    30    1.0   275     1.9   831.2    0.00 
  89    0:50   0.00   40.1    28    0.8   243     1.7   831.3    0.00 
  89    1:00   0.00   39.5    29    1.3   143     2.7   831.4    0.00 
  89    1:10   0.00   38.0    30    0.5   190     3.1   831.5    0.00 
  89    1:20   0.00   36.6    35    1.2   273     2.8   831.5    0.00 
  89    1:30   0.00   35.4    37    1.0   316     3.7   831.3    0.00 
  89    1:40   0.00   36.9    35    2.4   280     3.7   831.2    0.00 
  89    1:50   0.00   36.2    39    3.2   312     4.9   831.2    0.00 
  89    2:00   0.00   36.7    38    2.0   316     3.0   831.2    0.00 
  89    2:10   0.00   36.6    39    3.3   284     4.3   831.1    0.00 
  89    2:20   0.00   38.8    34    2.6   298     4.5   831.1    0.00 
  89    2:30   0.00   39.3    32    0.5   292     1.8   831.2    0.00 
  89    2:40   0.00   38.7    33    0.1   300     1.3   831.2    0.00 
  89    2:50   0.00   38.0    34    1.1   280     2.8   831.2    0.00 
  89    3:00   0.00   36.5    36    0.1    34     1.2   831.3    0.00 
  89    3:10   0.00   36.0    37    0.6   355     1.5   831.3    0.00 
  89    3:20   0.00   35.1    39    1.4   348     2.9   831.4    0.00 
  89    3:30   0.00   35.6    37    2.4   329     4.5   831.6    0.00 
  89    3:40   0.00   36.8    34    2.6   306     3.6   831.6    0.00 
  89    3:50   0.00   35.5    38    1.8   304     4.0   831.6    0.00 
  89    4:00   0.00   33.4    41    0.6    24     1.6   831.6    0.00 
  89    4:10   0.00   32.8    41    0.6   326     1.8   831.6    0.00 
  89    4:20   0.00   33.2    39    0.0     0     0.0   831.6    0.00 
  89    4:30   0.00   33.4    39    1.2   188     1.8   831.6    0.00 
  89    4:40   0.00   33.7    38    0.3   110     1.3   831.7    0.00 
  89    4:50   0.00   32.8    40    1.0   328     2.6   831.7    0.00 
  89    5:00   0.00   33.6    39    2.5   303     3.7   831.8    0.00 
  89    5:10   0.00   33.6    40    0.5   301     1.9   831.9    0.00 
  89    5:20   0.00   34.0    38    1.1   275     2.4   831.9    0.00 
  89    5:30   0.01   33.6    40    1.3   274     2.5   831.9    0.00 
  89    5:40   0.01   32.5    42    1.0   257     2.3   832.0    0.00 
  89    5:50   0.03   31.2    47    1.3   252     2.2   832.1    0.00 
  89    6:00   0.07   31.7    45    1.4    21     2.2   832.2    0.00 
  89    6:10   0.10   32.8    43    2.9   359     4.5   832.3    0.00 
  89    6:20   0.13   33.8    40    2.9   357     4.7   832.3    0.00 
  89    6:30   0.16   35.6    36    1.6   333     3.0   832.2    0.00 
  89    6:40   0.20   38.0    36    0.5   285     1.5   832.2    0.00 
  89    6:50   0.23   42.1    30    0.6    78     1.8   832.2    0.00 
  89    7:00   0.27   43.1    29    1.4    76     2.6   832.2    0.00 
  89    7:10   0.31   43.3    30    1.6    75     2.9   832.3    0.00 
  89    7:20   0.35   45.5    28    0.5    83     2.3   832.4    0.00 
  89    7:30   0.38   47.4    26    0.9    77     2.9   832.4    0.00 
  89    7:40   0.42   48.5    26    1.3   102     3.1   832.5    0.00 
  89    7:50   0.46   49.0    25    2.1   110     3.6   832.6    0.00 
  89    8:00   0.49   49.8    23    2.0   103     3.7   832.7    0.00 
  89    8:10   0.53   51.3    22    2.1   137     4.6   832.8    0.00 
  89    8:20   0.56   52.4    22    2.1   150     5.3   832.9    0.00 
  89    8:30   0.59   54.0    20    1.7   177     4.5   832.9    0.00 
  89    8:40   0.63   54.1    21    2.7   125     4.8   832.9    0.00 
  89    8:50   0.66   55.1    20    2.7   134     5.6   832.9    0.00 
  89    9:00   0.69   55.4    20    2.9   135     6.9   832.8    0.00 
  89    9:10   0.71   56.3    19    2.6    95     5.0   832.8    0.00 
  89    9:20   0.74   56.9    18    3.0   138     5.7   832.7    0.00 
  89    9:30   0.77   57.7    18    3.5    98     6.9   832.6    0.00 
  89    9:40   0.79   58.9    17    3.2   106     6.9   832.5    0.00 
  89    9:50   0.81   59.0    17    3.4   152     6.9   832.5    0.00 
  89   10:00   0.83   60.1    17    2.5   145     5.5   832.4    0.00 
  89   10:10   0.85   61.0    16    2.5   103     5.8   832.4    0.00 
  89   10:20   0.87   62.8    16    1.9   113     5.3   832.3    0.00 
  89   10:30   0.88   62.2    16    3.6   137     7.7   832.2    0.00 
  89   10:40   0.89   63.4    15    3.2   178     7.5   832.0    0.00 
  89   10:50   0.91   63.6    15    3.2   106     8.0   831.9    0.00 
  89   11:00   0.92   64.2    15    2.7     4     6.6   831.8    0.00 
  89   11:10   0.92   65.0    15    4.1    89     7.0   831.7    0.00 
  89   11:20   0.93   65.4    14    3.0    96     8.8   831.6    0.00 
  89   11:30   0.93   66.3    14    3.4    74     7.5   831.4    0.00 
  89   11:40   0.94   66.7    14    3.6   124     7.6   831.2    0.00 
  89   11:50   0.94   67.1    14    4.7   101     9.6   831.0    0.00 
  89   12:00   0.94   68.2    14    4.0   118     7.4   830.8    0.00 
  89   12:10   0.94   68.8    13    3.9    79     7.1   830.6    0.00 
  89   12:20   0.94   69.5    13    3.1    93     6.9   830.4    0.00 
  89   12:30   0.94   70.2    12    3.5   171    11.1   830.2    0.00 
  89   12:40   0.94   71.1    13    2.7   206     7.7   830.0    0.00 
  89   12:50   0.93   71.1    13    5.0    75    10.1   829.7    0.00 
  89   13:00   0.46   70.6    12    2.4    84     6.4   829.5    0.00 
  89   13:10   0.73   70.1    12    4.3   103     9.5   829.4    0.00 
  89   13:20   0.42   69.9    12    2.6    59     6.1   829.2    0.00 
  89   13:30   0.24   70.3    12    3.3    63     7.0   829.0    0.00 
  89   13:40   0.28   70.2    12    1.9     5     4.3   828.9    0.00 
  89   13:50   0.27   70.9    12    2.6    12     6.7   828.8    0.00 
  89   14:00   0.49   71.0    12    2.9   142     5.3   828.7    0.00 
  89   14:10   0.85   73.7    11    1.6    60     4.1   828.5    0.00 
  89   14:20   0.24   71.8    11    2.8   196     7.6   828.2    0.00 
  89   14:30   0.23   71.6    11    1.7   207     4.0   828.1    0.00 
  89   14:40   0.22   71.2    12    1.3   251     3.3   828.0    0.00 
  89   14:50   0.23   71.4    11    1.0    38     2.4   827.8    0.00 
  89   15:00   0.24   71.9    11    0.9   318     3.2   827.7    0.00 
  89   15:10   0.55   72.7    10    1.5    59     4.5   827.6    0.00 

Return to North Spring Valley graphs page.


Western Regional Climate Center,wrcc@dri.edu